sensor_id;sensor_type;location;lat;lon;timestamp;temperature;humidity
8711;DHT22;4392;47.400;8.062;2023-02-19T00:01:46;15.80;76.70
8711;DHT22;4392;47.400;8.062;2023-02-19T00:04:14;15.80;76.60
8711;DHT22;4392;47.400;8.062;2023-02-19T00:06:47;15.70;76.60
8711;DHT22;4392;47.400;8.062;2023-02-19T00:09:19;15.60;76.70
8711;DHT22;4392;47.400;8.062;2023-02-19T00:11:46;15.60;76.90
8711;DHT22;4392;47.400;8.062;2023-02-19T00:14:19;15.60;76.70
8711;DHT22;4392;47.400;8.062;2023-02-19T00:16:45;15.50;76.20
8711;DHT22;4392;47.400;8.062;2023-02-19T00:19:13;15.10;76.20
8711;DHT22;4392;47.400;8.062;2023-02-19T00:21:40;14.80;77.50
8711;DHT22;4392;47.400;8.062;2023-02-19T00:24:12;14.60;76.60
8711;DHT22;4392;47.400;8.062;2023-02-19T00:26:39;14.30;77.30
8711;DHT22;4392;47.400;8.062;2023-02-19T00:29:20;14.20;78.80
8711;DHT22;4392;47.400;8.062;2023-02-19T00:31:49;14.00;79.80
8711;DHT22;4392;47.400;8.062;2023-02-19T00:34:15;14.00;79.80
8711;DHT22;4392;47.400;8.062;2023-02-19T00:36:48;13.90;81.10
8711;DHT22;4392;47.400;8.062;2023-02-19T00:39:15;14.20;80.70
8711;DHT22;4392;47.400;8.062;2023-02-19T00:41:45;14.30;80.80
8711;DHT22;4392;47.400;8.062;2023-02-19T00:44:17;14.40;81.20
8711;DHT22;4392;47.400;8.062;2023-02-19T00:46:46;14.50;80.80
8711;DHT22;4392;47.400;8.062;2023-02-19T00:49:18;14.50;82.00
8711;DHT22;4392;47.400;8.062;2023-02-19T00:51:46;14.60;86.10
8711;DHT22;4392;47.400;8.062;2023-02-19T00:54:13;14.60;86.90
8711;DHT22;4392;47.400;8.062;2023-02-19T00:56:39;14.70;86.20
8711;DHT22;4392;47.400;8.062;2023-02-19T00:59:05;14.60;83.00
8711;DHT22;4392;47.400;8.062;2023-02-19T01:01:37;14.60;83.20
8711;DHT22;4392;47.400;8.062;2023-02-19T01:04:03;14.60;83.80
8711;DHT22;4392;47.400;8.062;2023-02-19T01:06:29;14.60;83.70
8711;DHT22;4392;47.400;8.062;2023-02-19T01:09:00;14.30;78.10
8711;DHT22;4392;47.400;8.062;2023-02-19T01:11:26;13.60;79.70
8711;DHT22;4392;47.400;8.062;2023-02-19T01:13:56;13.10;81.20
8711;DHT22;4392;47.400;8.062;2023-02-19T01:16:25;12.70;82.50
8711;DHT22;4392;47.400;8.062;2023-02-19T01:18:52;12.50;83.30
8711;DHT22;4392;47.400;8.062;2023-02-19T01:21:20;12.40;83.60
8711;DHT22;4392;47.400;8.062;2023-02-19T01:23:47;12.30;84.00
8711;DHT22;4392;47.400;8.062;2023-02-19T01:26:16;12.10;84.80
8711;DHT22;4392;47.400;8.062;2023-02-19T01:28:46;12.00;85.40
8711;DHT22;4392;47.400;8.062;2023-02-19T01:31:17;12.00;85.90
8711;DHT22;4392;47.400;8.062;2023-02-19T01:33:57;11.90;86.10
8711;DHT22;4392;47.400;8.062;2023-02-19T01:36:31;12.40;86.40
8711;DHT22;4392;47.400;8.062;2023-02-19T01:38:59;12.30;86.00
8711;DHT22;4392;47.400;8.062;2023-02-19T01:41:28;12.10;86.50
8711;DHT22;4392;47.400;8.062;2023-02-19T01:46:44;11.90;86.60
8711;DHT22;4392;47.400;8.062;2023-02-19T01:49:22;11.90;86.90
8711;DHT22;4392;47.400;8.062;2023-02-19T01:52:03;11.90;87.30
8711;DHT22;4392;47.400;8.062;2023-02-19T01:54:36;11.90;87.40
8711;DHT22;4392;47.400;8.062;2023-02-19T01:57:09;11.80;87.30
8711;DHT22;4392;47.400;8.062;2023-02-19T01:59:36;11.80;87.90
8711;DHT22;4392;47.400;8.062;2023-02-19T02:02:02;11.80;88.10
8711;DHT22;4392;47.400;8.062;2023-02-19T02:04:36;11.70;88.30
8711;DHT22;4392;47.400;8.062;2023-02-19T02:07:06;11.60;88.50
8711;DHT22;4392;47.400;8.062;2023-02-19T02:09:58;11.60;88.60
8711;DHT22;4392;47.400;8.062;2023-02-19T02:12:46;11.50;88.00
8711;DHT22;4392;47.400;8.062;2023-02-19T02:15:15;11.40;88.40
8711;DHT22;4392;47.400;8.062;2023-02-19T02:17:52;11.40;89.10
8711;DHT22;4392;47.400;8.062;2023-02-19T02:26:06;11.30;90.00
8711;DHT22;4392;47.400;8.062;2023-02-19T02:31:25;11.30;90.10
8711;DHT22;4392;47.400;8.062;2023-02-19T02:36:52;11.20;90.20
8711;DHT22;4392;47.400;8.062;2023-02-19T02:39:26;11.20;90.40
8711;DHT22;4392;47.400;8.062;2023-02-19T02:41:59;11.10;90.30
8711;DHT22;4392;47.400;8.062;2023-02-19T02:53:40;11.00;90.60
8711;DHT22;4392;47.400;8.062;2023-02-19T02:56:28;11.00;90.80
8711;DHT22;4392;47.400;8.062;2023-02-19T02:59:05;10.90;90.80
8711;DHT22;4392;47.400;8.062;2023-02-19T03:04:43;11.60;89.70
8711;DHT22;4392;47.400;8.062;2023-02-19T03:10:19;11.20;90.70
8711;DHT22;4392;47.400;8.062;2023-02-19T03:12:51;11.10;90.60
8711;DHT22;4392;47.400;8.062;2023-02-19T03:15:53;11.10;90.90
8711;DHT22;4392;47.400;8.062;2023-02-19T03:18:45;11.10;91.10
8711;DHT22;4392;47.400;8.062;2023-02-19T03:21:31;11.00;91.10
8711;DHT22;4392;47.400;8.062;2023-02-19T03:24:05;11.00;91.40
8711;DHT22;4392;47.400;8.062;2023-02-19T03:26:51;11.00;91.50
8711;DHT22;4392;47.400;8.062;2023-02-19T03:29:22;10.90;91.60
8711;DHT22;4392;47.400;8.062;2023-02-19T03:31:54;10.90;91.70
8711;DHT22;4392;47.400;8.062;2023-02-19T03:34:28;11.00;92.00
8711;DHT22;4392;47.400;8.062;2023-02-19T03:37:02;11.00;91.90
8711;DHT22;4392;47.400;8.062;2023-02-19T03:39:29;11.00;91.80
8711;DHT22;4392;47.400;8.062;2023-02-19T03:47:28;11.00;92.30
8711;DHT22;4392;47.400;8.062;2023-02-19T03:50:33;11.00;92.40
8711;DHT22;4392;47.400;8.062;2023-02-19T04:06:30;10.90;93.10
8711;DHT22;4392;47.400;8.062;2023-02-19T04:08:59;10.90;93.10
8711;DHT22;4392;47.400;8.062;2023-02-19T04:11:26;11.00;95.50
8711;DHT22;4392;47.400;8.062;2023-02-19T04:14:01;11.30;93.30
8711;DHT22;4392;47.400;8.062;2023-02-19T04:16:37;11.00;93.40
8711;DHT22;4392;47.400;8.062;2023-02-19T04:19:15;10.80;94.10
8711;DHT22;4392;47.400;8.062;2023-02-19T04:21:49;10.90;93.70
8711;DHT22;4392;47.400;8.062;2023-02-19T04:24:23;10.90;93.80
8711;DHT22;4392;47.400;8.062;2023-02-19T04:26:49;10.90;93.90
8711;DHT22;4392;47.400;8.062;2023-02-19T04:29:21;10.80;93.90
8711;DHT22;4392;47.400;8.062;2023-02-19T04:31:49;10.90;94.30
8711;DHT22;4392;47.400;8.062;2023-02-19T04:34:15;11.00;94.00
8711;DHT22;4392;47.400;8.062;2023-02-19T04:36:40;10.90;93.90
8711;DHT22;4392;47.400;8.062;2023-02-19T04:39:14;10.90;93.90
8711;DHT22;4392;47.400;8.062;2023-02-19T04:41:40;10.90;93.90
8711;DHT22;4392;47.400;8.062;2023-02-19T04:44:06;10.80;94.00
8711;DHT22;4392;47.400;8.062;2023-02-19T04:46:35;10.80;94.30
8711;DHT22;4392;47.400;8.062;2023-02-19T04:49:00;10.70;94.90
8711;DHT22;4392;47.400;8.062;2023-02-19T04:51:26;10.70;95.20
8711;DHT22;4392;47.400;8.062;2023-02-19T04:53:52;10.80;95.30
8711;DHT22;4392;47.400;8.062;2023-02-19T04:56:23;10.80;95.40
8711;DHT22;4392;47.400;8.062;2023-02-19T04:58:54;10.80;95.70
8711;DHT22;4392;47.400;8.062;2023-02-19T05:01:27;10.80;95.70
8711;DHT22;4392;47.400;8.062;2023-02-19T05:03:55;10.80;96.30
8711;DHT22;4392;47.400;8.062;2023-02-19T05:06:21;10.80;96.30
8711;DHT22;4392;47.400;8.062;2023-02-19T05:08:50;10.80;96.40
8711;DHT22;4392;47.400;8.062;2023-02-19T05:11:16;10.80;96.70
8711;DHT22;4392;47.400;8.062;2023-02-19T05:13:42;10.80;97.00
8711;DHT22;4392;47.400;8.062;2023-02-19T05:16:13;10.80;97.10
8711;DHT22;4392;47.400;8.062;2023-02-19T05:18:42;10.80;97.10
8711;DHT22;4392;47.400;8.062;2023-02-19T05:21:14;10.70;97.20
8711;DHT22;4392;47.400;8.062;2023-02-19T05:23:41;10.70;97.40
8711;DHT22;4392;47.400;8.062;2023-02-19T05:26:21;10.70;97.60
8711;DHT22;4392;47.400;8.062;2023-02-19T05:28:51;10.70;97.70
8711;DHT22;4392;47.400;8.062;2023-02-19T05:31:20;10.70;97.50
8711;DHT22;4392;47.400;8.062;2023-02-19T05:33:46;10.60;97.40
8711;DHT22;4392;47.400;8.062;2023-02-19T05:36:17;10.50;97.70
8711;DHT22;4392;47.400;8.062;2023-02-19T05:38:46;10.50;98.00
8711;DHT22;4392;47.400;8.062;2023-02-19T05:41:17;10.50;97.60
8711;DHT22;4392;47.400;8.062;2023-02-19T05:43:49;10.60;97.30
8711;DHT22;4392;47.400;8.062;2023-02-19T05:46:20;10.60;97.00
8711;DHT22;4392;47.400;8.062;2023-02-19T05:48:48;10.50;96.90
8711;DHT22;4392;47.400;8.062;2023-02-19T05:51:18;10.50;97.20
8711;DHT22;4392;47.400;8.062;2023-02-19T05:53:46;10.50;97.50
8711;DHT22;4392;47.400;8.062;2023-02-19T05:59:05;10.20;99.30
8711;DHT22;4392;47.400;8.062;2023-02-19T06:01:35;10.30;99.10
8711;DHT22;4392;47.400;8.062;2023-02-19T06:04:01;10.30;99.10
8711;DHT22;4392;47.400;8.062;2023-02-19T06:06:27;10.40;99.30
8711;DHT22;4392;47.400;8.062;2023-02-19T06:08:53;10.50;99.90
8711;DHT22;4392;47.400;8.062;2023-02-19T06:11:19;10.50;99.70
8711;DHT22;4392;47.400;8.062;2023-02-19T06:13:51;10.50;99.50
8711;DHT22;4392;47.400;8.062;2023-02-19T06:16:17;10.40;99.60
8711;DHT22;4392;47.400;8.062;2023-02-19T06:18:50;10.40;99.70
8711;DHT22;4392;47.400;8.062;2023-02-19T06:21:16;10.40;99.70
8711;DHT22;4392;47.400;8.062;2023-02-19T06:23:43;10.40;99.60
8711;DHT22;4392;47.400;8.062;2023-02-19T06:26:16;10.40;99.50
8711;DHT22;4392;47.400;8.062;2023-02-19T06:28:43;10.40;99.60
8711;DHT22;4392;47.400;8.062;2023-02-19T06:31:18;10.40;99.90
8711;DHT22;4392;47.400;8.062;2023-02-19T06:33:46;10.50;99.50
8711;DHT22;4392;47.400;8.062;2023-02-19T06:36:24;10.50;99.40
8711;DHT22;4392;47.400;8.062;2023-02-19T06:38:50;10.50;99.40
8711;DHT22;4392;47.400;8.062;2023-02-19T06:41:16;10.50;99.50
8711;DHT22;4392;47.400;8.062;2023-02-19T06:43:48;10.50;99.50
8711;DHT22;4392;47.400;8.062;2023-02-19T06:46:14;10.50;99.40
8711;DHT22;4392;47.400;8.062;2023-02-19T06:48:43;10.50;99.30
8711;DHT22;4392;47.400;8.062;2023-02-19T06:51:16;10.50;99.40
8711;DHT22;4392;47.400;8.062;2023-02-19T06:53:48;10.50;99.70
8711;DHT22;4392;47.400;8.062;2023-02-19T06:56:39;10.50;99.70
8711;DHT22;4392;47.400;8.062;2023-02-19T06:59:10;10.50;99.90
8711;DHT22;4392;47.400;8.062;2023-02-19T07:01:37;10.50;99.90
8711;DHT22;4392;47.400;8.062;2023-02-19T07:04:08;10.50;99.90
8711;DHT22;4392;47.400;8.062;2023-02-19T07:06:34;10.60;99.90
8711;DHT22;4392;47.400;8.062;2023-02-19T07:09:03;10.50;99.90
8711;DHT22;4392;47.400;8.062;2023-02-19T07:11:35;10.50;99.90
8711;DHT22;4392;47.400;8.062;2023-02-19T07:14:04;10.60;99.90
8711;DHT22;4392;47.400;8.062;2023-02-19T07:16:34;10.60;99.90
8711;DHT22;4392;47.400;8.062;2023-02-19T07:19:01;10.50;99.90
8711;DHT22;4392;47.400;8.062;2023-02-19T07:21:27;10.50;99.90
8711;DHT22;4392;47.400;8.062;2023-02-19T07:23:57;10.50;99.90
8711;DHT22;4392;47.400;8.062;2023-02-19T07:26:30;10.50;99.90
8711;DHT22;4392;47.400;8.062;2023-02-19T07:28:56;10.60;99.90
8711;DHT22;4392;47.400;8.062;2023-02-19T07:31:22;10.60;99.90
8711;DHT22;4392;47.400;8.062;2023-02-19T07:33:51;10.50;99.90
8711;DHT22;4392;47.400;8.062;2023-02-19T07:36:20;10.60;99.90
8711;DHT22;4392;47.400;8.062;2023-02-19T07:38:46;10.60;99.90
8711;DHT22;4392;47.400;8.062;2023-02-19T07:41:16;10.60;99.90
8711;DHT22;4392;47.400;8.062;2023-02-19T07:43:44;10.70;99.90
8711;DHT22;4392;47.400;8.062;2023-02-19T07:46:13;10.70;99.90
8711;DHT22;4392;47.400;8.062;2023-02-19T07:48:44;10.70;99.90
8711;DHT22;4392;47.400;8.062;2023-02-19T07:51:17;10.80;99.90
8711;DHT22;4392;47.400;8.062;2023-02-19T07:53:50;10.80;99.90
8711;DHT22;4392;47.400;8.062;2023-02-19T07:56:18;10.80;99.90
8711;DHT22;4392;47.400;8.062;2023-02-19T07:58:46;10.80;99.90
8711;DHT22;4392;47.400;8.062;2023-02-19T08:01:20;10.90;99.90
8711;DHT22;4392;47.400;8.062;2023-02-19T08:04:06;10.90;99.90
8711;DHT22;4392;47.400;8.062;2023-02-19T08:06:31;11.00;99.90
8711;DHT22;4392;47.400;8.062;2023-02-19T08:09:05;11.00;99.90
8711;DHT22;4392;47.400;8.062;2023-02-19T08:11:31;11.00;99.90
8711;DHT22;4392;47.400;8.062;2023-02-19T08:14:18;11.00;99.90
8711;DHT22;4392;47.400;8.062;2023-02-19T08:16:53;11.00;99.90
8711;DHT22;4392;47.400;8.062;2023-02-19T08:19:19;11.10;99.90
8711;DHT22;4392;47.400;8.062;2023-02-19T08:21:45;11.10;99.90
8711;DHT22;4392;47.400;8.062;2023-02-19T08:24:10;11.10;99.90
8711;DHT22;4392;47.400;8.062;2023-02-19T08:26:36;11.10;99.90
8711;DHT22;4392;47.400;8.062;2023-02-19T08:29:07;11.20;99.90
8711;DHT22;4392;47.400;8.062;2023-02-19T08:31:33;11.20;99.90
8711;DHT22;4392;47.400;8.062;2023-02-19T08:33:59;11.20;99.90
8711;DHT22;4392;47.400;8.062;2023-02-19T08:36:29;11.20;99.90
8711;DHT22;4392;47.400;8.062;2023-02-19T08:38:57;11.20;99.90
8711;DHT22;4392;47.400;8.062;2023-02-19T08:41:23;11.30;99.90
8711;DHT22;4392;47.400;8.062;2023-02-19T08:43:49;11.30;99.90
8711;DHT22;4392;47.400;8.062;2023-02-19T08:46:20;11.10;99.90
8711;DHT22;4392;47.400;8.062;2023-02-19T08:48:48;11.20;99.90
8711;DHT22;4392;47.400;8.062;2023-02-19T08:51:16;11.20;99.90
8711;DHT22;4392;47.400;8.062;2023-02-19T08:53:46;11.30;99.60
8711;DHT22;4392;47.400;8.062;2023-02-19T08:56:15;11.40;99.20
8711;DHT22;4392;47.400;8.062;2023-02-19T08:58:42;11.40;99.10
8711;DHT22;4392;47.400;8.062;2023-02-19T09:01:13;11.40;98.80
8711;DHT22;4392;47.400;8.062;2023-02-19T09:03:39;11.40;98.80
8711;DHT22;4392;47.400;8.062;2023-02-19T09:06:17;11.40;98.70
8711;DHT22;4392;47.400;8.062;2023-02-19T09:08:51;11.50;98.70
8711;DHT22;4392;47.400;8.062;2023-02-19T09:11:17;11.50;98.60
8711;DHT22;4392;47.400;8.062;2023-02-19T09:13:45;11.50;98.30
8711;DHT22;4392;47.400;8.062;2023-02-19T09:16:13;11.50;98.30
8711;DHT22;4392;47.400;8.062;2023-02-19T09:18:42;11.50;98.40
8711;DHT22;4392;47.400;8.062;2023-02-19T09:21:13;11.50;98.40
8711;DHT22;4392;47.400;8.062;2023-02-19T09:23:38;11.50;98.60
8711;DHT22;4392;47.400;8.062;2023-02-19T09:26:05;11.50;99.90
8711;DHT22;4392;47.400;8.062;2023-02-19T09:28:39;11.20;99.90
8711;DHT22;4392;47.400;8.062;2023-02-19T09:31:26;11.00;99.90
8711;DHT22;4392;47.400;8.062;2023-02-19T09:33:51;10.90;99.90
8711;DHT22;4392;47.400;8.062;2023-02-19T09:36:17;10.80;99.90
8711;DHT22;4392;47.400;8.062;2023-02-19T09:38:43;10.80;99.90
8711;DHT22;4392;47.400;8.062;2023-02-19T09:41:30;10.80;99.90
8711;DHT22;4392;47.400;8.062;2023-02-19T09:44:01;10.90;99.90
8711;DHT22;4392;47.400;8.062;2023-02-19T09:46:47;10.80;99.90
8711;DHT22;4392;47.400;8.062;2023-02-19T09:49:39;10.70;99.90
8711;DHT22;4392;47.400;8.062;2023-02-19T09:52:22;10.70;99.90
8711;DHT22;4392;47.400;8.062;2023-02-19T09:54:53;10.70;99.90
8711;DHT22;4392;47.400;8.062;2023-02-19T09:57:23;10.70;99.90
8711;DHT22;4392;47.400;8.062;2023-02-19T10:00:05;10.70;99.90
8711;DHT22;4392;47.400;8.062;2023-02-19T10:02:34;10.70;99.90
8711;DHT22;4392;47.400;8.062;2023-02-19T10:05:20;10.70;99.90
8711;DHT22;4392;47.400;8.062;2023-02-19T10:07:51;10.80;99.90
8711;DHT22;4392;47.400;8.062;2023-02-19T10:10:32;10.90;99.90
8711;DHT22;4392;47.400;8.062;2023-02-19T10:18:14;10.80;99.90
8711;DHT22;4392;47.400;8.062;2023-02-19T10:20:44;10.80;99.90
8711;DHT22;4392;47.400;8.062;2023-02-19T10:23:12;10.80;99.90
8711;DHT22;4392;47.400;8.062;2023-02-19T10:26:06;10.70;99.90
8711;DHT22;4392;47.400;8.062;2023-02-19T10:28:35;10.70;99.90
8711;DHT22;4392;47.400;8.062;2023-02-19T10:31:03;10.70;99.90
8711;DHT22;4392;47.400;8.062;2023-02-19T10:33:55;10.80;99.90
8711;DHT22;4392;47.400;8.062;2023-02-19T10:38:59;10.80;99.90
8711;DHT22;4392;47.400;8.062;2023-02-19T10:41:26;10.80;99.90
8711;DHT22;4392;47.400;8.062;2023-02-19T10:44:02;10.80;99.90
8711;DHT22;4392;47.400;8.062;2023-02-19T10:46:40;10.80;99.90
8711;DHT22;4392;47.400;8.062;2023-02-19T10:52:02;10.50;99.90
8711;DHT22;4392;47.400;8.062;2023-02-19T10:54:45;10.60;99.90
8711;DHT22;4392;47.400;8.062;2023-02-19T10:57:27;10.60;99.90
8711;DHT22;4392;47.400;8.062;2023-02-19T11:00:28;10.50;99.90
8711;DHT22;4392;47.400;8.062;2023-02-19T11:03:20;10.40;99.90
8711;DHT22;4392;47.400;8.062;2023-02-19T11:06:13;10.50;99.90
8711;DHT22;4392;47.400;8.062;2023-02-19T11:08:58;10.50;99.90
8711;DHT22;4392;47.400;8.062;2023-02-19T11:11:30;10.60;99.90
8711;DHT22;4392;47.400;8.062;2023-02-19T11:14:01;10.40;99.90
8711;DHT22;4392;47.400;8.062;2023-02-19T11:17:00;10.40;99.90
8711;DHT22;4392;47.400;8.062;2023-02-19T11:19:38;10.40;99.90
8711;DHT22;4392;47.400;8.062;2023-02-19T11:22:31;10.30;99.90
8711;DHT22;4392;47.400;8.062;2023-02-19T11:25:18;10.40;99.90
8711;DHT22;4392;47.400;8.062;2023-02-19T11:27:55;10.20;99.90
8711;DHT22;4392;47.400;8.062;2023-02-19T11:35:40;10.10;99.90
8711;DHT22;4392;47.400;8.062;2023-02-19T11:38:09;10.40;99.90
8711;DHT22;4392;47.400;8.062;2023-02-19T11:54:54;10.60;99.90
8711;DHT22;4392;47.400;8.062;2023-02-19T11:57:42;10.60;99.90
8711;DHT22;4392;47.400;8.062;2023-02-19T12:00:28;10.40;99.90
8711;DHT22;4392;47.400;8.062;2023-02-19T12:14:31;10.50;99.90
8711;DHT22;4392;47.400;8.062;2023-02-19T12:31:38;10.80;99.90
8711;DHT22;4392;47.400;8.062;2023-02-19T12:34:23;10.80;99.90
8711;DHT22;4392;47.400;8.062;2023-02-19T12:40:24;10.80;99.90
8711;DHT22;4392;47.400;8.062;2023-02-19T12:43:19;10.90;99.90
8711;DHT22;4392;47.400;8.062;2023-02-19T12:48:52;10.90;99.90
8711;DHT22;4392;47.400;8.062;2023-02-19T12:54:20;10.90;99.90
8711;DHT22;4392;47.400;8.062;2023-02-19T12:56:55;10.80;99.90
8711;DHT22;4392;47.400;8.062;2023-02-19T12:59:59;10.70;99.90
8711;DHT22;4392;47.400;8.062;2023-02-19T13:05:17;10.60;99.90
8711;DHT22;4392;47.400;8.062;2023-02-19T13:07:56;10.60;99.90
8711;DHT22;4392;47.400;8.062;2023-02-19T13:12:53;10.80;99.90
8711;DHT22;4392;47.400;8.062;2023-02-19T13:15:34;10.80;99.90
8711;DHT22;4392;47.400;8.062;2023-02-19T13:18:12;10.70;99.90
8711;DHT22;4392;47.400;8.062;2023-02-19T13:20:42;10.80;99.90
8711;DHT22;4392;47.400;8.062;2023-02-19T13:23:24;10.70;99.90
8711;DHT22;4392;47.400;8.062;2023-02-19T13:37:37;11.00;99.90
8711;DHT22;4392;47.400;8.062;2023-02-19T13:40:34;11.00;99.90
8711;DHT22;4392;47.400;8.062;2023-02-19T13:43:04;11.00;99.90
8711;DHT22;4392;47.400;8.062;2023-02-19T13:48:34;11.10;99.90
8711;DHT22;4392;47.400;8.062;2023-02-19T13:59:26;11.40;98.90
8711;DHT22;4392;47.400;8.062;2023-02-19T14:17:23;11.40;97.60
8711;DHT22;4392;47.400;8.062;2023-02-19T14:25:32;11.40;96.80
8711;DHT22;4392;47.400;8.062;2023-02-19T14:28:26;11.40;97.30
8711;DHT22;4392;47.400;8.062;2023-02-19T14:33:42;11.30;97.40
8711;DHT22;4392;47.400;8.062;2023-02-19T14:36:27;11.20;97.80
8711;DHT22;4392;47.400;8.062;2023-02-19T14:39:04;11.20;98.60
8711;DHT22;4392;47.400;8.062;2023-02-19T14:41:35;11.10;98.90
8711;DHT22;4392;47.400;8.062;2023-02-19T14:44:11;11.10;98.90
8711;DHT22;4392;47.400;8.062;2023-02-19T14:46:47;11.10;98.50
8711;DHT22;4392;47.400;8.062;2023-02-19T14:49:26;11.20;98.20
8711;DHT22;4392;47.400;8.062;2023-02-19T14:52:00;11.10;98.10
8711;DHT22;4392;47.400;8.062;2023-02-19T14:55:33;11.20;97.70
8711;DHT22;4392;47.400;8.062;2023-02-19T14:57:55;11.60;98.90
8711;DHT22;4392;47.400;8.062;2023-02-19T15:00:30;11.50;96.30
8711;DHT22;4392;47.400;8.062;2023-02-19T15:03:00;11.30;96.20
8711;DHT22;4392;47.400;8.062;2023-02-19T15:05:35;11.30;95.30
8711;DHT22;4392;47.400;8.062;2023-02-19T15:08:07;11.40;95.00
8711;DHT22;4392;47.400;8.062;2023-02-19T15:10:35;11.30;95.10
8711;DHT22;4392;47.400;8.062;2023-02-19T15:13:08;11.20;94.40
8711;DHT22;4392;47.400;8.062;2023-02-19T15:15:42;11.30;94.30
8711;DHT22;4392;47.400;8.062;2023-02-19T15:18:19;11.20;93.70
8711;DHT22;4392;47.400;8.062;2023-02-19T15:20:46;11.20;93.90
8711;DHT22;4392;47.400;8.062;2023-02-19T15:23:21;11.40;94.90
8711;DHT22;4392;47.400;8.062;2023-02-19T15:25:48;11.50;94.50
8711;DHT22;4392;47.400;8.062;2023-02-19T15:28:31;11.60;93.60
8711;DHT22;4392;47.400;8.062;2023-02-19T15:33:23;11.50;93.40
8711;DHT22;4392;47.400;8.062;2023-02-19T15:35:57;11.50;93.20
8711;DHT22;4392;47.400;8.062;2023-02-19T15:38:24;11.30;93.50
8711;DHT22;4392;47.400;8.062;2023-02-19T15:40:50;11.30;93.50
8711;DHT22;4392;47.400;8.062;2023-02-19T15:43:34;11.30;93.30
8711;DHT22;4392;47.400;8.062;2023-02-19T15:46:16;11.30;93.80
8711;DHT22;4392;47.400;8.062;2023-02-19T15:49:00;11.20;92.60
8711;DHT22;4392;47.400;8.062;2023-02-19T15:51:40;11.20;93.40
8711;DHT22;4392;47.400;8.062;2023-02-19T15:57:17;11.50;98.10
8711;DHT22;4392;47.400;8.062;2023-02-19T16:00:33;12.30;94.10
8711;DHT22;4392;47.400;8.062;2023-02-19T16:02:53;12.00;92.60
8711;DHT22;4392;47.400;8.062;2023-02-19T16:05:28;11.60;93.10
8711;DHT22;4392;47.400;8.062;2023-02-19T16:08:17;11.50;93.20
8711;DHT22;4392;47.400;8.062;2023-02-19T16:11:01;11.50;93.20
8711;DHT22;4392;47.400;8.062;2023-02-19T16:13:29;11.30;93.60
8711;DHT22;4392;47.400;8.062;2023-02-19T16:18:25;11.40;93.80
8711;DHT22;4392;47.400;8.062;2023-02-19T16:20:51;11.40;94.60
8711;DHT22;4392;47.400;8.062;2023-02-19T16:23:17;11.50;94.00
8711;DHT22;4392;47.400;8.062;2023-02-19T16:26:02;11.60;93.60
8711;DHT22;4392;47.400;8.062;2023-02-19T16:28:34;11.40;93.50
8711;DHT22;4392;47.400;8.062;2023-02-19T16:31:06;11.60;93.60
8711;DHT22;4392;47.400;8.062;2023-02-19T16:33:45;11.60;93.50
8711;DHT22;4392;47.400;8.062;2023-02-19T16:38:39;11.70;93.10
8711;DHT22;4392;47.400;8.062;2023-02-19T16:41:10;11.80;92.60
8711;DHT22;4392;47.400;8.062;2023-02-19T16:43:41;11.80;92.50
8711;DHT22;4392;47.400;8.062;2023-02-19T16:46:09;11.70;92.50
8711;DHT22;4392;47.400;8.062;2023-02-19T16:48:38;11.50;93.00
8711;DHT22;4392;47.400;8.062;2023-02-19T16:51:24;11.40;93.10
8711;DHT22;4392;47.400;8.062;2023-02-19T16:53:52;11.30;93.70
8711;DHT22;4392;47.400;8.062;2023-02-19T16:56:19;11.40;93.30
8711;DHT22;4392;47.400;8.062;2023-02-19T16:59:07;11.30;94.00
8711;DHT22;4392;47.400;8.062;2023-02-19T17:01:34;11.50;93.20
8711;DHT22;4392;47.400;8.062;2023-02-19T17:04:11;11.30;93.30
8711;DHT22;4392;47.400;8.062;2023-02-19T17:06:42;11.20;93.60
8711;DHT22;4392;47.400;8.062;2023-02-19T17:09:12;11.20;93.70
8711;DHT22;4392;47.400;8.062;2023-02-19T17:11:46;11.30;94.00
8711;DHT22;4392;47.400;8.062;2023-02-19T17:14:11;11.20;93.70
8711;DHT22;4392;47.400;8.062;2023-02-19T17:16:37;11.20;93.80
8711;DHT22;4392;47.400;8.062;2023-02-19T17:19:15;11.40;93.50
8711;DHT22;4392;47.400;8.062;2023-02-19T17:21:43;11.10;93.50
8711;DHT22;4392;47.400;8.062;2023-02-19T17:24:10;11.20;93.70
8711;DHT22;4392;47.400;8.062;2023-02-19T17:26:36;11.20;93.60
8711;DHT22;4392;47.400;8.062;2023-02-19T17:29:06;11.40;93.50
8711;DHT22;4392;47.400;8.062;2023-02-19T17:31:33;11.30;93.60
8711;DHT22;4392;47.400;8.062;2023-02-19T17:33:59;11.20;93.80
8711;DHT22;4392;47.400;8.062;2023-02-19T17:36:27;11.30;93.70
8711;DHT22;4392;47.400;8.062;2023-02-19T17:39:09;11.40;94.00
8711;DHT22;4392;47.400;8.062;2023-02-19T17:41:39;11.40;93.40
8711;DHT22;4392;47.400;8.062;2023-02-19T17:44:12;11.40;93.40
8711;DHT22;4392;47.400;8.062;2023-02-19T17:46:38;11.40;93.20
8711;DHT22;4392;47.400;8.062;2023-02-19T17:49:04;11.40;93.30
8711;DHT22;4392;47.400;8.062;2023-02-19T17:51:30;11.40;93.40
8711;DHT22;4392;47.400;8.062;2023-02-19T17:54:00;11.30;93.20
8711;DHT22;4392;47.400;8.062;2023-02-19T17:56:27;11.30;93.30
8711;DHT22;4392;47.400;8.062;2023-02-19T17:58:58;11.30;93.40
8711;DHT22;4392;47.400;8.062;2023-02-19T18:01:29;11.30;93.50
8711;DHT22;4392;47.400;8.062;2023-02-19T18:04:00;11.30;93.50
8711;DHT22;4392;47.400;8.062;2023-02-19T18:06:25;11.30;93.70
8711;DHT22;4392;47.400;8.062;2023-02-19T18:08:52;11.30;93.80
8711;DHT22;4392;47.400;8.062;2023-02-19T18:11:18;11.30;93.60
8711;DHT22;4392;47.400;8.062;2023-02-19T18:13:47;11.30;93.70
8711;DHT22;4392;47.400;8.062;2023-02-19T18:16:13;11.20;93.80
8711;DHT22;4392;47.400;8.062;2023-02-19T18:18:40;11.30;94.00
8711;DHT22;4392;47.400;8.062;2023-02-19T18:21:13;11.10;94.00
8711;DHT22;4392;47.400;8.062;2023-02-19T18:23:41;11.10;94.40
8711;DHT22;4392;47.400;8.062;2023-02-19T18:26:17;11.20;94.50
8711;DHT22;4392;47.400;8.062;2023-02-19T18:28:42;11.30;94.40
8711;DHT22;4392;47.400;8.062;2023-02-19T18:31:08;11.30;94.40
8711;DHT22;4392;47.400;8.062;2023-02-19T18:33:37;11.30;94.40
8711;DHT22;4392;47.400;8.062;2023-02-19T18:36:14;11.30;94.50
8711;DHT22;4392;47.400;8.062;2023-02-19T18:38:42;11.30;94.40
8711;DHT22;4392;47.400;8.062;2023-02-19T18:41:15;11.40;95.50
8711;DHT22;4392;47.400;8.062;2023-02-19T18:43:43;11.40;95.70
8711;DHT22;4392;47.400;8.062;2023-02-19T18:46:13;11.40;95.20
8711;DHT22;4392;47.400;8.062;2023-02-19T18:48:39;11.50;95.40
8711;DHT22;4392;47.400;8.062;2023-02-19T18:51:09;11.30;95.40
8711;DHT22;4392;47.400;8.062;2023-02-19T18:53:35;11.30;95.40
8711;DHT22;4392;47.400;8.062;2023-02-19T18:56:05;11.40;95.70
8711;DHT22;4392;47.400;8.062;2023-02-19T18:58:33;11.40;95.30
8711;DHT22;4392;47.400;8.062;2023-02-19T19:01:01;11.20;95.70
8711;DHT22;4392;47.400;8.062;2023-02-19T19:03:29;11.30;95.60
8711;DHT22;4392;47.400;8.062;2023-02-19T19:05:56;11.40;95.60
8711;DHT22;4392;47.400;8.062;2023-02-19T19:08:23;11.40;95.40
8711;DHT22;4392;47.400;8.062;2023-02-19T19:10:51;11.30;95.50
8711;DHT22;4392;47.400;8.062;2023-02-19T19:13:17;11.30;95.70
8711;DHT22;4392;47.400;8.062;2023-02-19T19:15:51;11.30;95.50
8711;DHT22;4392;47.400;8.062;2023-02-19T19:18:22;11.50;95.50
8711;DHT22;4392;47.400;8.062;2023-02-19T19:20:55;11.70;94.20
8711;DHT22;4392;47.400;8.062;2023-02-19T19:23:31;11.60;93.50
8711;DHT22;4392;47.400;8.062;2023-02-19T19:25:57;11.50;93.20
8711;DHT22;4392;47.400;8.062;2023-02-19T19:28:29;11.50;93.30
8711;DHT22;4392;47.400;8.062;2023-02-19T19:30:55;11.50;93.20
8711;DHT22;4392;47.400;8.062;2023-02-19T19:33:21;11.50;93.00
8711;DHT22;4392;47.400;8.062;2023-02-19T19:35:47;11.40;92.70